Main page
METAR-TAF:

METAR-TAF

Airports :

Guaratinguetá, São Paulo, Brazil

latitude: 22-47S, longitude: 045-12W, elevation: 537 m

Current weather observation

The report was made 1 hour and 12 minutes ago, at 19:00 UTC
Wind 4 kt from the North
Temperature 30°C
Humidity 49%
Pressure 1015 hPa
Visibility 10 km or more
Scattered clouds at a height of 2500 ft

METAR: SBGW 241900Z 01004KT 9999 SCT025 30/18 Q1015

Time: 17:12 (20:12 UTC)

Forecast

The report was made 5 hours and 12 minutes ago, at 15:00 UTC
Forecast valid from 24 at 18 UTC to 25 at 06 UTC
Wind 5 kt from the Southeast
Visibility 10 km or more
Scattered clouds at a height of 2000 ft
Becoming
from 24 at 22 UTC to 24 at 24 UTC
Wind 4 kt from variable directions
Few clouds at a height of 1700 ft

TAF: SBGW 241500Z 2418/2506 13005KT 9999 SCT020 TX31/2418Z TN22/2506Z BECMG 2422/2424 VRB04KT FEW017 RMK PER

Weather observations and forecasts of more than 4000 airports (METAR and TAF reports).

The available stations are represented by yellow and red dots on the map.

Hover mouse over dot to see the name of the station.

Then click to see weather observations and forecasts.

To change the map : click on the green buttons with a black cross to zoom in, on the green button with a dash to zoom out, or on the green arrows for adjacent maps.


METAR-TAF: